O Neals, California
Current Conditions -  °F | °C
As of 2:53 PM on Tuesday 21 Oct 2014 (Local Time) from KFAT Reporting Station
Scattered Clouds Scattered Clouds  
Wind Chill: 74°   Ceiling: Unl
Heat Index: 74°   Visibility: 10mi
Dew Point: 43°   Wind: 7mph
Humidity: 33%   Direction: 310°NW
Pressure: 29.99"   Gusts: NA
Location:  37.1445°N, 119.651°W
Report Text: KFAT 212153Z 31006KT 10SM FEW070 FEW200 SCT250 23/06 A2999 RMK AO2 SLP151 HZ FU DSNT NE-SE T02330061
Loading
Personal Weather Stations






























Interactive Weather Map
Tropical Storm Tracking
New forecast layout! Learn more

10-Day Weather Forecast

Advertisements
Track Severe Weather on mobile